sensor_id;sensor_type;location;lat;lon;timestamp;P1;durP1;ratioP1;P2;durP2;ratioP2
9260;SDS011;4667;42.726;23.252;2023-03-14T00:01:19;11.60;;;7.60;;
9260;SDS011;4667;42.726;23.252;2023-03-14T00:03:47;8.00;;;6.97;;
9260;SDS011;4667;42.726;23.252;2023-03-14T00:06:53;13.63;;;7.07;;
9260;SDS011;4667;42.726;23.252;2023-03-14T00:09:59;12.10;;;6.93;;
9260;SDS011;4667;42.726;23.252;2023-03-14T00:13:13;10.37;;;7.77;;
9260;SDS011;4667;42.726;23.252;2023-03-14T00:15:44;11.53;;;7.00;;
9260;SDS011;4667;42.726;23.252;2023-03-14T00:31:42;10.40;;;6.97;;
9260;SDS011;4667;42.726;23.252;2023-03-14T00:34:33;11.40;;;7.70;;
9260;SDS011;4667;42.726;23.252;2023-03-14T00:37:17;10.03;;;6.60;;
9260;SDS011;4667;42.726;23.252;2023-03-14T00:39:58;11.40;;;6.60;;
9260;SDS011;4667;42.726;23.252;2023-03-14T00:53:21;9.47;;;6.50;;
9260;SDS011;4667;42.726;23.252;2023-03-14T00:56:02;15.47;;;7.83;;
9260;SDS011;4667;42.726;23.252;2023-03-14T01:03:39;16.63;;;7.67;;
9260;SDS011;4667;42.726;23.252;2023-03-14T04:30:20;7.47;;;5.13;;
9260;SDS011;4667;42.726;23.252;2023-03-14T07:25:27;11.23;;;5.50;;
9260;SDS011;4667;42.726;23.252;2023-03-14T07:27:53;14.10;;;7.10;;
9260;SDS011;4667;42.726;23.252;2023-03-14T07:30:20;7.90;;;6.03;;
9260;SDS011;4667;42.726;23.252;2023-03-14T07:32:46;10.27;;;6.40;;
9260;SDS011;4667;42.726;23.252;2023-03-14T07:35:13;7.90;;;6.30;;
9260;SDS011;4667;42.726;23.252;2023-03-14T07:37:39;10.17;;;7.60;;
9260;SDS011;4667;42.726;23.252;2023-03-14T07:40:06;8.83;;;6.63;;
9260;SDS011;4667;42.726;23.252;2023-03-14T07:42:34;9.63;;;6.27;;
9260;SDS011;4667;42.726;23.252;2023-03-14T07:45:02;9.33;;;7.20;;
9260;SDS011;4667;42.726;23.252;2023-03-14T07:47:28;14.10;;;8.17;;
9260;SDS011;4667;42.726;23.252;2023-03-14T07:49:55;11.07;;;7.33;;
9260;SDS011;4667;42.726;23.252;2023-03-14T07:52:21;13.43;;;7.50;;
9260;SDS011;4667;42.726;23.252;2023-03-14T07:54:48;11.00;;;7.63;;
9260;SDS011;4667;42.726;23.252;2023-03-14T07:57:15;12.33;;;6.87;;
9260;SDS011;4667;42.726;23.252;2023-03-14T07:59:43;11.67;;;7.10;;
9260;SDS011;4667;42.726;23.252;2023-03-14T08:02:10;10.53;;;7.23;;
9260;SDS011;4667;42.726;23.252;2023-03-14T08:04:37;9.97;;;6.67;;
9260;SDS011;4667;42.726;23.252;2023-03-14T08:07:04;9.63;;;6.97;;
9260;SDS011;4667;42.726;23.252;2023-03-14T08:09:31;14.67;;;7.30;;
9260;SDS011;4667;42.726;23.252;2023-03-14T08:11:57;12.90;;;8.10;;
9260;SDS011;4667;42.726;23.252;2023-03-14T08:14:24;12.40;;;8.90;;
9260;SDS011;4667;42.726;23.252;2023-03-14T08:16:52;14.13;;;8.40;;
9260;SDS011;4667;42.726;23.252;2023-03-14T08:19:18;13.10;;;7.90;;
9260;SDS011;4667;42.726;23.252;2023-03-14T08:21:45;11.97;;;8.53;;
9260;SDS011;4667;42.726;23.252;2023-03-14T08:24:12;14.57;;;8.47;;
9260;SDS011;4667;42.726;23.252;2023-03-14T08:26:38;13.33;;;8.50;;
9260;SDS011;4667;42.726;23.252;2023-03-14T08:29:05;9.73;;;7.87;;
9260;SDS011;4667;42.726;23.252;2023-03-14T08:31:33;9.87;;;7.30;;
9260;SDS011;4667;42.726;23.252;2023-03-14T08:34:01;13.63;;;7.77;;
9260;SDS011;4667;42.726;23.252;2023-03-14T08:36:28;15.10;;;8.50;;
9260;SDS011;4667;42.726;23.252;2023-03-14T08:38:56;13.27;;;7.47;;
9260;SDS011;4667;42.726;23.252;2023-03-14T08:41:23;12.67;;;7.50;;
9260;SDS011;4667;42.726;23.252;2023-03-14T08:43:49;9.07;;;7.30;;
9260;SDS011;4667;42.726;23.252;2023-03-14T08:46:16;11.63;;;7.77;;
9260;SDS011;4667;42.726;23.252;2023-03-14T08:48:42;11.40;;;7.17;;
9260;SDS011;4667;42.726;23.252;2023-03-14T08:51:10;15.27;;;7.93;;
9260;SDS011;4667;42.726;23.252;2023-03-14T08:53:37;10.27;;;7.53;;
9260;SDS011;4667;42.726;23.252;2023-03-14T08:56:04;11.82;;;8.32;;
9260;SDS011;4667;42.726;23.252;2023-03-14T08:58:31;10.30;;;6.93;;
9260;SDS011;4667;42.726;23.252;2023-03-14T09:01:00;11.23;;;8.10;;
9260;SDS011;4667;42.726;23.252;2023-03-14T09:03:27;8.35;;;6.30;;
9260;SDS011;4667;42.726;23.252;2023-03-14T09:05:53;10.23;;;5.93;;
9260;SDS011;4667;42.726;23.252;2023-03-14T09:08:23;8.95;;;6.05;;
9260;SDS011;4667;42.726;23.252;2023-03-14T09:10:49;12.23;;;5.57;;
9260;SDS011;4667;42.726;23.252;2023-03-14T09:13:16;6.47;;;4.40;;
9260;SDS011;4667;42.726;23.252;2023-03-14T09:15:42;6.78;;;4.90;;
9260;SDS011;4667;42.726;23.252;2023-03-14T09:18:09;6.97;;;4.63;;
9260;SDS011;4667;42.726;23.252;2023-03-14T09:20:36;7.38;;;4.88;;
9260;SDS011;4667;42.726;23.252;2023-03-14T09:23:02;8.70;;;4.40;;
9260;SDS011;4667;42.726;23.252;2023-03-14T09:25:30;5.75;;;4.22;;
9260;SDS011;4667;42.726;23.252;2023-03-14T09:27:57;8.63;;;4.25;;
9260;SDS011;4667;42.726;23.252;2023-03-14T09:30:23;6.78;;;4.55;;
9260;SDS011;4667;42.726;23.252;2023-03-14T09:32:49;6.88;;;4.00;;
9260;SDS011;4667;42.726;23.252;2023-03-14T09:35:16;5.63;;;4.55;;
9260;SDS011;4667;42.726;23.252;2023-03-14T09:37:42;10.85;;;4.95;;
9260;SDS011;4667;42.726;23.252;2023-03-14T09:40:11;5.63;;;4.60;;
9260;SDS011;4667;42.726;23.252;2023-03-14T09:42:40;4.30;;;3.10;;
9260;SDS011;4667;42.726;23.252;2023-03-14T09:45:11;4.55;;;2.85;;
9260;SDS011;4667;42.726;23.252;2023-03-14T09:47:38;3.72;;;3.03;;
9260;SDS011;4667;42.726;23.252;2023-03-14T09:50:06;6.15;;;3.47;;
9260;SDS011;4667;42.726;23.252;2023-03-14T09:52:34;7.20;;;4.00;;
9260;SDS011;4667;42.726;23.252;2023-03-14T09:55:02;4.65;;;3.08;;
9260;SDS011;4667;42.726;23.252;2023-03-14T09:57:29;5.50;;;3.63;;
9260;SDS011;4667;42.726;23.252;2023-03-14T10:00:00;4.40;;;3.80;;
9260;SDS011;4667;42.726;23.252;2023-03-14T10:02:31;7.25;;;3.15;;
9260;SDS011;4667;42.726;23.252;2023-03-14T10:04:59;5.38;;;2.95;;
9260;SDS011;4667;42.726;23.252;2023-03-14T10:07:28;4.93;;;3.50;;
9260;SDS011;4667;42.726;23.252;2023-03-14T10:09:54;6.50;;;3.40;;
9260;SDS011;4667;42.726;23.252;2023-03-14T10:12:30;5.18;;;2.95;;
9260;SDS011;4667;42.726;23.252;2023-03-14T10:14:57;7.05;;;4.50;;
9260;SDS011;4667;42.726;23.252;2023-03-14T10:17:29;4.82;;;3.45;;
9260;SDS011;4667;42.726;23.252;2023-03-14T10:19:59;3.97;;;2.85;;
9260;SDS011;4667;42.726;23.252;2023-03-14T10:22:26;4.35;;;3.13;;
9260;SDS011;4667;42.726;23.252;2023-03-14T10:24:55;5.55;;;3.50;;
9260;SDS011;4667;42.726;23.252;2023-03-14T10:27:27;4.72;;;3.13;;
9260;SDS011;4667;42.726;23.252;2023-03-14T10:29:55;6.15;;;3.10;;
9260;SDS011;4667;42.726;23.252;2023-03-14T10:32:23;4.25;;;3.55;;
9260;SDS011;4667;42.726;23.252;2023-03-14T10:35:17;5.30;;;3.30;;
9260;SDS011;4667;42.726;23.252;2023-03-14T10:37:52;7.10;;;3.85;;
9260;SDS011;4667;42.726;23.252;2023-03-14T10:40:23;7.40;;;3.75;;
9260;SDS011;4667;42.726;23.252;2023-03-14T10:42:51;4.40;;;3.05;;
9260;SDS011;4667;42.726;23.252;2023-03-14T10:45:33;5.82;;;2.85;;
9260;SDS011;4667;42.726;23.252;2023-03-14T10:50:57;3.90;;;2.92;;
9260;SDS011;4667;42.726;23.252;2023-03-14T10:53:29;3.33;;;2.97;;
9260;SDS011;4667;42.726;23.252;2023-03-14T10:55:58;3.75;;;2.70;;
9260;SDS011;4667;42.726;23.252;2023-03-14T10:58:30;5.30;;;2.55;;
9260;SDS011;4667;42.726;23.252;2023-03-14T11:01:02;6.70;;;2.63;;
9260;SDS011;4667;42.726;23.252;2023-03-14T11:03:33;4.60;;;3.28;;
9260;SDS011;4667;42.726;23.252;2023-03-14T11:06:04;5.72;;;3.40;;
9260;SDS011;4667;42.726;23.252;2023-03-14T11:08:35;4.82;;;3.42;;
9260;SDS011;4667;42.726;23.252;2023-03-14T11:11:07;4.18;;;3.45;;
9260;SDS011;4667;42.726;23.252;2023-03-14T11:13:38;3.95;;;3.30;;
9260;SDS011;4667;42.726;23.252;2023-03-14T11:16:06;6.75;;;3.20;;
9260;SDS011;4667;42.726;23.252;2023-03-14T11:18:48;5.05;;;2.97;;
9260;SDS011;4667;42.726;23.252;2023-03-14T11:21:20;4.65;;;3.65;;
9260;SDS011;4667;42.726;23.252;2023-03-14T11:23:51;9.48;;;3.75;;
9260;SDS011;4667;42.726;23.252;2023-03-14T11:26:24;5.07;;;3.40;;
9260;SDS011;4667;42.726;23.252;2023-03-14T11:28:54;6.22;;;4.50;;
9260;SDS011;4667;42.726;23.252;2023-03-14T11:31:24;6.18;;;4.00;;
9260;SDS011;4667;42.726;23.252;2023-03-14T11:33:54;9.73;;;4.03;;
9260;SDS011;4667;42.726;23.252;2023-03-14T11:36:24;11.27;;;4.25;;
9260;SDS011;4667;42.726;23.252;2023-03-14T11:38:55;5.82;;;3.47;;
9260;SDS011;4667;42.726;23.252;2023-03-14T11:41:23;4.75;;;3.30;;
9260;SDS011;4667;42.726;23.252;2023-03-14T11:43:52;5.45;;;3.83;;
9260;SDS011;4667;42.726;23.252;2023-03-14T11:46:21;4.57;;;3.40;;
9260;SDS011;4667;42.726;23.252;2023-03-14T11:48:53;7.20;;;3.08;;
9260;SDS011;4667;42.726;23.252;2023-03-14T11:51:21;3.67;;;3.15;;
9260;SDS011;4667;42.726;23.252;2023-03-14T11:53:53;3.17;;;2.78;;
9260;SDS011;4667;42.726;23.252;2023-03-14T11:56:24;5.05;;;3.30;;
9260;SDS011;4667;42.726;23.252;2023-03-14T11:58:55;4.80;;;3.35;;
9260;SDS011;4667;42.726;23.252;2023-03-14T12:01:27;3.55;;;2.72;;
9260;SDS011;4667;42.726;23.252;2023-03-14T12:03:58;5.40;;;3.15;;
9260;SDS011;4667;42.726;23.252;2023-03-14T12:06:30;7.80;;;3.47;;
9260;SDS011;4667;42.726;23.252;2023-03-14T12:09:00;4.97;;;2.92;;
9260;SDS011;4667;42.726;23.252;2023-03-14T12:11:33;3.88;;;3.17;;
9260;SDS011;4667;42.726;23.252;2023-03-14T12:14:00;3.30;;;2.67;;
9260;SDS011;4667;42.726;23.252;2023-03-14T12:16:32;3.72;;;2.45;;
9260;SDS011;4667;42.726;23.252;2023-03-14T12:19:12;2.55;;;2.25;;
9260;SDS011;4667;42.726;23.252;2023-03-14T12:21:44;3.58;;;2.17;;
9260;SDS011;4667;42.726;23.252;2023-03-14T12:24:18;3.67;;;2.25;;
9260;SDS011;4667;42.726;23.252;2023-03-14T12:26:48;3.20;;;2.05;;
9260;SDS011;4667;42.726;23.252;2023-03-14T12:29:15;4.00;;;2.38;;
9260;SDS011;4667;42.726;23.252;2023-03-14T12:31:43;5.68;;;2.35;;
9260;SDS011;4667;42.726;23.252;2023-03-14T12:34:24;6.93;;;2.22;;
9260;SDS011;4667;42.726;23.252;2023-03-14T12:36:54;4.22;;;2.17;;
9260;SDS011;4667;42.726;23.252;2023-03-14T12:39:24;4.30;;;2.28;;
9260;SDS011;4667;42.726;23.252;2023-03-14T12:42:10;3.15;;;2.20;;
9260;SDS011;4667;42.726;23.252;2023-03-14T12:44:38;4.28;;;2.40;;
9260;SDS011;4667;42.726;23.252;2023-03-14T12:49:55;4.03;;;2.22;;
9260;SDS011;4667;42.726;23.252;2023-03-14T12:52:28;21.25;;;2.67;;
9260;SDS011;4667;42.726;23.252;2023-03-14T12:55:02;2.13;;;1.77;;
9260;SDS011;4667;42.726;23.252;2023-03-14T12:57:35;4.18;;;2.22;;
9260;SDS011;4667;42.726;23.252;2023-03-14T13:00:16;3.22;;;2.33;;
9260;SDS011;4667;42.726;23.252;2023-03-14T13:02:52;2.78;;;2.00;;
9260;SDS011;4667;42.726;23.252;2023-03-14T13:05:19;2.58;;;1.55;;
9260;SDS011;4667;42.726;23.252;2023-03-14T13:08:03;5.40;;;1.90;;
9260;SDS011;4667;42.726;23.252;2023-03-14T13:10:31;5.13;;;2.28;;
9260;SDS011;4667;42.726;23.252;2023-03-14T13:13:09;2.05;;;1.85;;
9260;SDS011;4667;42.726;23.252;2023-03-14T13:15:41;2.92;;;1.63;;
9260;SDS011;4667;42.726;23.252;2023-03-14T13:18:11;2.38;;;1.67;;
9260;SDS011;4667;42.726;23.252;2023-03-14T13:20:40;1.55;;;1.40;;
9260;SDS011;4667;42.726;23.252;2023-03-14T13:23:18;2.17;;;1.60;;
9260;SDS011;4667;42.726;23.252;2023-03-14T13:25:47;2.28;;;1.80;;
9260;SDS011;4667;42.726;23.252;2023-03-14T13:28:14;1.90;;;1.42;;
9260;SDS011;4667;42.726;23.252;2023-03-14T13:30:42;2.75;;;1.83;;
9260;SDS011;4667;42.726;23.252;2023-03-14T13:33:13;9.10;;;2.25;;
9260;SDS011;4667;42.726;23.252;2023-03-14T13:35:40;1.98;;;1.48;;
9260;SDS011;4667;42.726;23.252;2023-03-14T13:38:13;2.95;;;1.90;;
9260;SDS011;4667;42.726;23.252;2023-03-14T13:40:44;4.70;;;1.67;;
9260;SDS011;4667;42.726;23.252;2023-03-14T13:43:16;2.85;;;2.42;;
9260;SDS011;4667;42.726;23.252;2023-03-14T13:45:48;2.03;;;1.40;;
9260;SDS011;4667;42.726;23.252;2023-03-14T13:48:16;4.18;;;1.73;;
9260;SDS011;4667;42.726;23.252;2023-03-14T13:50:50;3.95;;;1.60;;
9260;SDS011;4667;42.726;23.252;2023-03-14T13:53:17;1.73;;;1.55;;
9260;SDS011;4667;42.726;23.252;2023-03-14T13:55:48;3.75;;;1.70;;
9260;SDS011;4667;42.726;23.252;2023-03-14T13:58:23;2.38;;;1.30;;
9260;SDS011;4667;42.726;23.252;2023-03-14T14:00:55;2.88;;;1.48;;
9260;SDS011;4667;42.726;23.252;2023-03-14T14:03:22;2.78;;;1.73;;
9260;SDS011;4667;42.726;23.252;2023-03-14T14:05:48;3.55;;;2.70;;
9260;SDS011;4667;42.726;23.252;2023-03-14T14:08:15;4.05;;;1.90;;
9260;SDS011;4667;42.726;23.252;2023-03-14T14:10:42;1.42;;;1.33;;
9260;SDS011;4667;42.726;23.252;2023-03-14T14:13:12;2.22;;;1.52;;
9260;SDS011;4667;42.726;23.252;2023-03-14T14:15:49;2.75;;;1.55;;
9260;SDS011;4667;42.726;23.252;2023-03-14T14:18:18;3.08;;;1.63;;
9260;SDS011;4667;42.726;23.252;2023-03-14T14:20:50;1.75;;;1.60;;
9260;SDS011;4667;42.726;23.252;2023-03-14T14:23:19;2.90;;;1.73;;
9260;SDS011;4667;42.726;23.252;2023-03-14T14:25:50;2.17;;;1.50;;
9260;SDS011;4667;42.726;23.252;2023-03-14T14:28:17;2.63;;;1.70;;
9260;SDS011;4667;42.726;23.252;2023-03-14T14:31:04;1.90;;;1.30;;
9260;SDS011;4667;42.726;23.252;2023-03-14T14:33:37;2.35;;;1.45;;
9260;SDS011;4667;42.726;23.252;2023-03-14T14:36:11;4.57;;;1.95;;
9260;SDS011;4667;42.726;23.252;2023-03-14T14:38:40;1.75;;;1.55;;
9260;SDS011;4667;42.726;23.252;2023-03-14T14:41:10;1.73;;;1.58;;
9260;SDS011;4667;42.726;23.252;2023-03-14T14:43:38;1.67;;;1.30;;
9260;SDS011;4667;42.726;23.252;2023-03-14T14:46:08;1.60;;;1.40;;
9260;SDS011;4667;42.726;23.252;2023-03-14T14:48:36;4.45;;;1.50;;
9260;SDS011;4667;42.726;23.252;2023-03-14T14:51:04;3.05;;;1.92;;
9260;SDS011;4667;42.726;23.252;2023-03-14T14:53:34;3.90;;;1.85;;
9260;SDS011;4667;42.726;23.252;2023-03-14T14:56:03;1.92;;;1.27;;
9260;SDS011;4667;42.726;23.252;2023-03-14T14:58:33;1.67;;;1.42;;
9260;SDS011;4667;42.726;23.252;2023-03-14T15:01:03;2.13;;;1.60;;
9260;SDS011;4667;42.726;23.252;2023-03-14T15:03:32;2.75;;;1.80;;
9260;SDS011;4667;42.726;23.252;2023-03-14T15:05:59;4.68;;;1.42;;
9260;SDS011;4667;42.726;23.252;2023-03-14T15:08:26;4.30;;;1.77;;
9260;SDS011;4667;42.726;23.252;2023-03-14T15:10:54;2.88;;;1.90;;
9260;SDS011;4667;42.726;23.252;2023-03-14T15:13:21;2.65;;;1.65;;
9260;SDS011;4667;42.726;23.252;2023-03-14T15:15:47;2.53;;;1.70;;
9260;SDS011;4667;42.726;23.252;2023-03-14T15:18:21;4.85;;;1.90;;
9260;SDS011;4667;42.726;23.252;2023-03-14T15:20:49;1.77;;;1.67;;
9260;SDS011;4667;42.726;23.252;2023-03-14T15:23:16;2.00;;;1.80;;
9260;SDS011;4667;42.726;23.252;2023-03-14T15:25:42;1.35;;;1.23;;
9260;SDS011;4667;42.726;23.252;2023-03-14T15:28:17;4.07;;;1.73;;
9260;SDS011;4667;42.726;23.252;2023-03-14T15:30:45;2.75;;;2.03;;
9260;SDS011;4667;42.726;23.252;2023-03-14T15:33:11;3.35;;;1.85;;
9260;SDS011;4667;42.726;23.252;2023-03-14T15:35:37;3.53;;;2.40;;
9260;SDS011;4667;42.726;23.252;2023-03-14T15:38:09;2.50;;;2.17;;
9260;SDS011;4667;42.726;23.252;2023-03-14T15:40:36;2.78;;;1.70;;
9260;SDS011;4667;42.726;23.252;2023-03-14T15:43:02;2.07;;;1.83;;
9260;SDS011;4667;42.726;23.252;2023-03-14T15:45:30;4.70;;;2.10;;
9260;SDS011;4667;42.726;23.252;2023-03-14T15:47:56;3.20;;;2.17;;
9260;SDS011;4667;42.726;23.252;2023-03-14T15:50:26;3.17;;;2.20;;
9260;SDS011;4667;42.726;23.252;2023-03-14T15:52:53;3.03;;;2.10;;
9260;SDS011;4667;42.726;23.252;2023-03-14T15:55:22;5.00;;;2.70;;
9260;SDS011;4667;42.726;23.252;2023-03-14T15:57:49;3.57;;;2.47;;
9260;SDS011;4667;42.726;23.252;2023-03-14T16:00:17;3.20;;;2.20;;
9260;SDS011;4667;42.726;23.252;2023-03-14T16:02:44;4.10;;;2.70;;
9260;SDS011;4667;42.726;23.252;2023-03-14T16:05:11;3.97;;;2.37;;
9260;SDS011;4667;42.726;23.252;2023-03-14T16:07:38;5.20;;;3.00;;
9260;SDS011;4667;42.726;23.252;2023-03-14T16:10:05;4.20;;;3.17;;
9260;SDS011;4667;42.726;23.252;2023-03-14T16:12:34;5.68;;;3.55;;
9260;SDS011;4667;42.726;23.252;2023-03-14T16:15:02;5.63;;;3.47;;
9260;SDS011;4667;42.726;23.252;2023-03-14T16:17:31;7.43;;;3.03;;
9260;SDS011;4667;42.726;23.252;2023-03-14T16:19:57;5.47;;;2.93;;
9260;SDS011;4667;42.726;23.252;2023-03-14T16:22:24;8.07;;;3.30;;
9260;SDS011;4667;42.726;23.252;2023-03-14T16:24:51;3.30;;;2.27;;
9260;SDS011;4667;42.726;23.252;2023-03-14T16:27:18;3.87;;;3.47;;
9260;SDS011;4667;42.726;23.252;2023-03-14T16:29:46;4.47;;;3.37;;
9260;SDS011;4667;42.726;23.252;2023-03-14T16:32:13;4.37;;;3.23;;
9260;SDS011;4667;42.726;23.252;2023-03-14T16:34:40;3.60;;;3.00;;
9260;SDS011;4667;42.726;23.252;2023-03-14T16:37:06;5.13;;;3.37;;
9260;SDS011;4667;42.726;23.252;2023-03-14T16:39:33;4.80;;;2.83;;
9260;SDS011;4667;42.726;23.252;2023-03-14T16:42:00;8.53;;;3.37;;
9260;SDS011;4667;42.726;23.252;2023-03-14T16:44:27;5.30;;;3.20;;
9260;SDS011;4667;42.726;23.252;2023-03-14T16:46:57;3.80;;;2.80;;
9260;SDS011;4667;42.726;23.252;2023-03-14T16:49:24;4.10;;;2.70;;
9260;SDS011;4667;42.726;23.252;2023-03-14T16:51:51;6.67;;;2.80;;
9260;SDS011;4667;42.726;23.252;2023-03-14T16:54:17;3.67;;;2.93;;
9260;SDS011;4667;42.726;23.252;2023-03-14T16:56:45;5.07;;;3.50;;
9260;SDS011;4667;42.726;23.252;2023-03-14T16:59:14;3.60;;;3.10;;
9260;SDS011;4667;42.726;23.252;2023-03-14T17:01:41;6.00;;;3.40;;
9260;SDS011;4667;42.726;23.252;2023-03-14T17:04:09;5.40;;;3.37;;
9260;SDS011;4667;42.726;23.252;2023-03-14T17:06:36;6.00;;;3.83;;
9260;SDS011;4667;42.726;23.252;2023-03-14T17:09:03;5.70;;;4.40;;
9260;SDS011;4667;42.726;23.252;2023-03-14T17:11:30;6.53;;;4.13;;
9260;SDS011;4667;42.726;23.252;2023-03-14T17:13:58;4.13;;;3.40;;
9260;SDS011;4667;42.726;23.252;2023-03-14T17:16:25;4.30;;;3.17;;
9260;SDS011;4667;42.726;23.252;2023-03-14T17:18:51;4.23;;;3.03;;
9260;SDS011;4667;42.726;23.252;2023-03-14T17:21:21;6.27;;;3.67;;
9260;SDS011;4667;42.726;23.252;2023-03-14T17:23:51;9.73;;;4.10;;
9260;SDS011;4667;42.726;23.252;2023-03-14T17:26:17;4.57;;;4.03;;
9260;SDS011;4667;42.726;23.252;2023-03-14T17:28:44;6.50;;;5.57;;
9260;SDS011;4667;42.726;23.252;2023-03-14T17:31:12;12.57;;;8.47;;
9260;SDS011;4667;42.726;23.252;2023-03-14T17:33:41;9.57;;;7.77;;
9260;SDS011;4667;42.726;23.252;2023-03-14T17:36:08;10.83;;;8.23;;
9260;SDS011;4667;42.726;23.252;2023-03-14T17:38:39;7.30;;;5.47;;
9260;SDS011;4667;42.726;23.252;2023-03-14T17:41:13;6.00;;;5.13;;
9260;SDS011;4667;42.726;23.252;2023-03-14T17:43:41;5.70;;;3.97;;
9260;SDS011;4667;42.726;23.252;2023-03-14T17:46:10;8.13;;;4.83;;
9260;SDS011;4667;42.726;23.252;2023-03-14T17:48:42;5.77;;;4.43;;
9260;SDS011;4667;42.726;23.252;2023-03-14T17:51:09;4.60;;;3.40;;
9260;SDS011;4667;42.726;23.252;2023-03-14T17:53:38;5.53;;;3.67;;
9260;SDS011;4667;42.726;23.252;2023-03-14T17:56:08;5.20;;;3.77;;
9260;SDS011;4667;42.726;23.252;2023-03-14T17:58:36;4.83;;;3.97;;
9260;SDS011;4667;42.726;23.252;2023-03-14T18:01:06;6.07;;;3.40;;
9260;SDS011;4667;42.726;23.252;2023-03-14T18:03:33;6.53;;;3.30;;
9260;SDS011;4667;42.726;23.252;2023-03-14T18:06:02;4.60;;;3.73;;
9260;SDS011;4667;42.726;23.252;2023-03-14T18:08:29;5.07;;;4.33;;
9260;SDS011;4667;42.726;23.252;2023-03-14T18:10:57;5.97;;;3.93;;
9260;SDS011;4667;42.726;23.252;2023-03-14T18:13:25;5.07;;;3.33;;
9260;SDS011;4667;42.726;23.252;2023-03-14T18:15:51;5.17;;;4.43;;
9260;SDS011;4667;42.726;23.252;2023-03-14T18:18:19;6.20;;;4.10;;
9260;SDS011;4667;42.726;23.252;2023-03-14T18:20:58;5.20;;;4.07;;
9260;SDS011;4667;42.726;23.252;2023-03-14T18:23:29;4.83;;;3.50;;
9260;SDS011;4667;42.726;23.252;2023-03-14T18:26:01;8.63;;;4.40;;
9260;SDS011;4667;42.726;23.252;2023-03-14T18:28:28;5.73;;;3.63;;
9260;SDS011;4667;42.726;23.252;2023-03-14T18:30:59;8.47;;;4.27;;
9260;SDS011;4667;42.726;23.252;2023-03-14T18:33:25;7.97;;;4.77;;
9260;SDS011;4667;42.726;23.252;2023-03-14T18:35:53;6.27;;;3.63;;
9260;SDS011;4667;42.726;23.252;2023-03-14T18:38:20;5.20;;;3.40;;
9260;SDS011;4667;42.726;23.252;2023-03-14T18:40:47;4.53;;;3.23;;
9260;SDS011;4667;42.726;23.252;2023-03-14T18:43:15;5.83;;;4.07;;
9260;SDS011;4667;42.726;23.252;2023-03-14T18:45:43;6.13;;;3.80;;
9260;SDS011;4667;42.726;23.252;2023-03-14T18:48:09;7.27;;;3.80;;
9260;SDS011;4667;42.726;23.252;2023-03-14T18:50:36;5.53;;;4.17;;
9260;SDS011;4667;42.726;23.252;2023-03-14T18:53:02;6.40;;;3.83;;
9260;SDS011;4667;42.726;23.252;2023-03-14T18:55:29;4.57;;;3.57;;
9260;SDS011;4667;42.726;23.252;2023-03-14T18:57:56;4.67;;;3.67;;
9260;SDS011;4667;42.726;23.252;2023-03-14T19:00:26;5.20;;;4.57;;
9260;SDS011;4667;42.726;23.252;2023-03-14T19:02:54;5.27;;;3.97;;
9260;SDS011;4667;42.726;23.252;2023-03-14T19:05:21;8.40;;;3.67;;
9260;SDS011;4667;42.726;23.252;2023-03-14T19:07:48;6.20;;;3.97;;
9260;SDS011;4667;42.726;23.252;2023-03-14T19:10:15;7.70;;;4.33;;
9260;SDS011;4667;42.726;23.252;2023-03-14T19:12:42;8.57;;;4.47;;
9260;SDS011;4667;42.726;23.252;2023-03-14T19:15:09;4.27;;;3.87;;
9260;SDS011;4667;42.726;23.252;2023-03-14T19:17:40;5.27;;;3.77;;
9260;SDS011;4667;42.726;23.252;2023-03-14T19:20:08;7.57;;;4.33;;
9260;SDS011;4667;42.726;23.252;2023-03-14T19:22:35;7.53;;;4.00;;
9260;SDS011;4667;42.726;23.252;2023-03-14T19:25:02;4.33;;;3.93;;
9260;SDS011;4667;42.726;23.252;2023-03-14T19:27:30;5.33;;;3.63;;
9260;SDS011;4667;42.726;23.252;2023-03-14T19:29:58;6.80;;;3.80;;
9260;SDS011;4667;42.726;23.252;2023-03-14T19:32:25;6.83;;;4.10;;
9260;SDS011;4667;42.726;23.252;2023-03-14T19:34:55;8.37;;;4.87;;
9260;SDS011;4667;42.726;23.252;2023-03-14T19:37:23;5.47;;;4.20;;
9260;SDS011;4667;42.726;23.252;2023-03-14T19:39:51;5.97;;;4.47;;
9260;SDS011;4667;42.726;23.252;2023-03-14T19:42:18;8.77;;;4.50;;
9260;SDS011;4667;42.726;23.252;2023-03-14T19:44:45;9.13;;;4.90;;
9260;SDS011;4667;42.726;23.252;2023-03-14T19:47:12;10.20;;;5.30;;
9260;SDS011;4667;42.726;23.252;2023-03-14T19:49:39;8.70;;;5.60;;
9260;SDS011;4667;42.726;23.252;2023-03-14T19:52:10;6.70;;;4.30;;
9260;SDS011;4667;42.726;23.252;2023-03-14T19:54:37;11.50;;;4.37;;
9260;SDS011;4667;42.726;23.252;2023-03-14T19:57:06;8.43;;;5.23;;
9260;SDS011;4667;42.726;23.252;2023-03-14T19:59:33;6.10;;;4.00;;
9260;SDS011;4667;42.726;23.252;2023-03-14T20:02:02;11.17;;;5.10;;
9260;SDS011;4667;42.726;23.252;2023-03-14T20:04:30;7.70;;;4.70;;
9260;SDS011;4667;42.726;23.252;2023-03-14T20:10:03;8.77;;;5.37;;
9260;SDS011;4667;42.726;23.252;2023-03-14T20:12:33;6.67;;;4.30;;
9260;SDS011;4667;42.726;23.252;2023-03-14T20:15:04;6.47;;;4.53;;
9260;SDS011;4667;42.726;23.252;2023-03-14T20:17:42;8.67;;;5.50;;
9260;SDS011;4667;42.726;23.252;2023-03-14T20:20:09;6.43;;;5.07;;
9260;SDS011;4667;42.726;23.252;2023-03-14T20:22:37;5.90;;;5.10;;
9260;SDS011;4667;42.726;23.252;2023-03-14T20:25:05;6.57;;;4.47;;
9260;SDS011;4667;42.726;23.252;2023-03-14T20:27:35;10.30;;;5.17;;
9260;SDS011;4667;42.726;23.252;2023-03-14T20:30:04;7.37;;;4.37;;
9260;SDS011;4667;42.726;23.252;2023-03-14T20:32:34;8.20;;;4.87;;
9260;SDS011;4667;42.726;23.252;2023-03-14T20:35:04;8.40;;;5.10;;
9260;SDS011;4667;42.726;23.252;2023-03-14T20:37:31;7.13;;;4.53;;
9260;SDS011;4667;42.726;23.252;2023-03-14T20:40:01;11.03;;;4.37;;
9260;SDS011;4667;42.726;23.252;2023-03-14T20:42:42;9.00;;;5.37;;
9260;SDS011;4667;42.726;23.252;2023-03-14T20:45:13;6.20;;;4.07;;
9260;SDS011;4667;42.726;23.252;2023-03-14T20:47:40;7.07;;;4.20;;
9260;SDS011;4667;42.726;23.252;2023-03-14T20:50:21;9.97;;;5.07;;
9260;SDS011;4667;42.726;23.252;2023-03-14T20:52:47;5.50;;;4.37;;
9260;SDS011;4667;42.726;23.252;2023-03-14T20:55:14;6.30;;;4.17;;
9260;SDS011;4667;42.726;23.252;2023-03-14T20:57:47;8.73;;;4.67;;
9260;SDS011;4667;42.726;23.252;2023-03-14T21:00:13;9.83;;;5.40;;
9260;SDS011;4667;42.726;23.252;2023-03-14T21:02:41;6.07;;;4.80;;
9260;SDS011;4667;42.726;23.252;2023-03-14T21:05:08;6.13;;;4.57;;
9260;SDS011;4667;42.726;23.252;2023-03-14T21:07:35;7.37;;;4.97;;
9260;SDS011;4667;42.726;23.252;2023-03-14T21:10:06;9.20;;;4.83;;
9260;SDS011;4667;42.726;23.252;2023-03-14T21:12:34;10.87;;;5.83;;
9260;SDS011;4667;42.726;23.252;2023-03-14T21:15:04;10.27;;;5.83;;
9260;SDS011;4667;42.726;23.252;2023-03-14T21:17:31;7.87;;;5.10;;
9260;SDS011;4667;42.726;23.252;2023-03-14T21:19:58;7.77;;;5.47;;
9260;SDS011;4667;42.726;23.252;2023-03-14T21:22:25;9.67;;;5.73;;
9260;SDS011;4667;42.726;23.252;2023-03-14T21:24:54;7.00;;;5.30;;
9260;SDS011;4667;42.726;23.252;2023-03-14T21:27:23;7.53;;;4.87;;
9260;SDS011;4667;42.726;23.252;2023-03-14T21:29:52;9.97;;;5.43;;
9260;SDS011;4667;42.726;23.252;2023-03-14T21:32:23;8.17;;;5.20;;
9260;SDS011;4667;42.726;23.252;2023-03-14T21:34:50;8.13;;;4.27;;
9260;SDS011;4667;42.726;23.252;2023-03-14T21:37:19;9.60;;;5.33;;
9260;SDS011;4667;42.726;23.252;2023-03-14T21:39:51;13.70;;;6.07;;
9260;SDS011;4667;42.726;23.252;2023-03-14T21:42:31;9.93;;;6.03;;
9260;SDS011;4667;42.726;23.252;2023-03-14T21:45:10;11.30;;;5.57;;
9260;SDS011;4667;42.726;23.252;2023-03-14T21:47:42;9.40;;;5.43;;
9260;SDS011;4667;42.726;23.252;2023-03-14T21:50:11;9.87;;;5.67;;
9260;SDS011;4667;42.726;23.252;2023-03-14T21:52:39;10.57;;;6.70;;
9260;SDS011;4667;42.726;23.252;2023-03-14T21:55:10;11.47;;;6.10;;
9260;SDS011;4667;42.726;23.252;2023-03-14T21:57:42;8.53;;;5.43;;
9260;SDS011;4667;42.726;23.252;2023-03-14T22:00:10;5.37;;;4.50;;
9260;SDS011;4667;42.726;23.252;2023-03-14T22:02:41;7.87;;;5.33;;
9260;SDS011;4667;42.726;23.252;2023-03-14T22:05:09;7.30;;;5.00;;
9260;SDS011;4667;42.726;23.252;2023-03-14T22:07:37;17.57;;;5.73;;
9260;SDS011;4667;42.726;23.252;2023-03-14T22:10:03;10.57;;;5.90;;